Time,TemperatureF,DewpointF,PressureIn,WindDirection,WindDirectionDegrees,WindSpeedMPH,WindSpeedGustMPH,Humidity,HourlyPrecipIn,Conditions,Clouds,dailyrainin,SoftwareType,DateUTC
2013-11-10 00:14:00,48.2,45.1,30.17,ESE,112,0.0,-999.0,89,-99.99,,,0.00,Acu-Link.com,2013-11-10 06:14:00,
2013-11-10 00:30:00,48.6,45.2,30.16,NE,45,0.0,-999.0,88,-99.99,,,0.00,Acu-Link.com,2013-11-10 06:30:00,
2013-11-10 00:45:00,48.7,44.7,30.16,NE,45,0.0,-999.0,86,-99.99,,,0.00,Acu-Link.com,2013-11-10 06:45:00,
2013-11-10 01:00:00,48.9,45.2,30.17,NE,45,0.0,-999.0,87,-99.99,,,0.00,Acu-Link.com,2013-11-10 07:00:00,
2013-11-10 01:15:00,49.3,45.6,30.17,NE,45,0.0,-999.0,87,-99.99,,,0.00,Acu-Link.com,2013-11-10 07:15:00,
2013-11-10 01:31:00,49.5,45.8,30.17,NE,45,0.0,-999.0,87,-99.99,,,0.00,Acu-Link.com,2013-11-10 07:31:00,
2013-11-10 01:46:00,49.5,45.8,30.17,NE,45,0.0,-999.0,87,-99.99,,,0.00,Acu-Link.com,2013-11-10 07:46:00,
2013-11-10 02:01:00,49.6,45.9,30.17,NE,45,0.0,-999.0,87,-99.99,,,0.00,Acu-Link.com,2013-11-10 08:01:00,
2013-11-10 02:16:00,49.5,45.5,30.17,NE,45,0.0,-999.0,86,-99.99,,,0.00,Acu-Link.com,2013-11-10 08:16:00,
2013-11-10 02:32:00,49.6,45.9,30.17,NE,45,0.0,-999.0,87,-99.99,,,0.00,Acu-Link.com,2013-11-10 08:32:00,
2013-11-10 02:47:00,49.8,46.4,30.18,NE,45,0.0,-999.0,88,-99.99,,,0.00,Acu-Link.com,2013-11-10 08:47:00,
2013-11-10 03:02:00,49.6,45.9,30.18,NE,45,0.0,-999.0,87,-99.99,,,0.00,Acu-Link.com,2013-11-10 09:02:00,
2013-11-10 03:18:00,49.8,46.4,30.17,NNE,22,0.0,-999.0,88,-99.99,,,0.00,Acu-Link.com,2013-11-10 09:18:00,
2013-11-10 03:33:00,49.6,45.6,30.18,NNE,22,0.0,-999.0,86,-99.99,,,0.00,Acu-Link.com,2013-11-10 09:33:00,
2013-11-10 03:48:00,49.3,45.9,30.18,NNE,22,0.0,-999.0,88,-99.99,,,0.00,Acu-Link.com,2013-11-10 09:48:00,
2013-11-10 04:03:00,48.9,45.8,30.18,NNE,22,0.0,-999.0,89,-99.99,,,0.00,Acu-Link.com,2013-11-10 10:03:00,
2013-11-10 04:19:00,48.7,45.0,30.19,NNE,22,0.0,-999.0,87,-99.99,,,0.00,Acu-Link.com,2013-11-10 10:19:00,
2013-11-10 04:34:00,48.4,45.6,30.19,NNE,22,0.0,-999.0,90,-99.99,,,0.00,Acu-Link.com,2013-11-10 10:34:00,
2013-11-10 04:49:00,48.0,44.9,30.19,North,0,0.0,-999.0,89,-99.99,,,0.00,Acu-Link.com,2013-11-10 10:49:00,
2013-11-10 05:04:00,46.4,43.6,30.19,NNE,22,0.0,-999.0,90,-99.99,,,0.00,Acu-Link.com,2013-11-10 11:04:00,
2013-11-10 05:20:00,45.3,43.7,30.20,NNE,22,0.0,-999.0,94,-99.99,,,0.00,Acu-Link.com,2013-11-10 11:20:00,
2013-11-10 05:35:00,44.8,42.3,30.20,North,0,0.0,-999.0,91,-99.99,,,0.00,Acu-Link.com,2013-11-10 11:35:00,
2013-11-10 05:50:00,43.0,41.4,30.21,North,0,0.0,-999.0,94,-99.99,,,0.00,Acu-Link.com,2013-11-10 11:50:00,
2013-11-10 06:06:00,43.0,41.7,30.22,North,0,0.0,-999.0,95,-99.99,,,0.00,Acu-Link.com,2013-11-10 12:06:00,
2013-11-10 06:21:00,41.9,40.6,30.22,North,0,0.0,-999.0,95,-99.99,,,0.00,Acu-Link.com,2013-11-10 12:21:00,
2013-11-10 06:36:00,41.7,40.6,30.23,North,0,0.0,-999.0,96,-99.99,,,0.00,Acu-Link.com,2013-11-10 12:36:00,
2013-11-10 06:51:00,41.5,40.4,30.23,North,0,0.0,-999.0,96,-99.99,,,0.00,Acu-Link.com,2013-11-10 12:51:00,
2013-11-10 07:07:00,41.0,39.9,30.23,North,0,0.0,-999.0,96,-99.99,,,0.00,Acu-Link.com,2013-11-10 13:07:00,
2013-11-10 07:22:00,42.4,41.1,30.23,North,0,0.0,-999.0,95,-99.99,,,0.00,Acu-Link.com,2013-11-10 13:22:00,
2013-11-10 07:37:00,44.1,42.2,30.24,North,0,0.0,-999.0,93,-99.99,,,0.00,Acu-Link.com,2013-11-10 13:37:00,
2013-11-10 07:52:00,46.0,43.5,30.25,North,0,0.0,-999.0,91,-99.99,,,0.00,Acu-Link.com,2013-11-10 13:52:00,
2013-11-10 08:07:00,48.6,43.0,30.25,West,270,1.7,-999.0,81,-99.99,,,0.00,Acu-Link.com,2013-11-10 14:07:00,
2013-11-10 08:22:00,52.9,42.6,30.26,ESE,112,2.2,-999.0,68,-99.99,,,0.00,Acu-Link.com,2013-11-10 14:22:00,
2013-11-10 08:37:00,54.5,42.2,30.26,NNW,337,4.2,-999.0,63,-99.99,,,0.00,Acu-Link.com,2013-11-10 14:37:00,
2013-11-10 08:53:00,55.8,41.7,30.26,ESE,112,3.2,-999.0,59,-99.99,,,0.00,Acu-Link.com,2013-11-10 14:53:00,
2013-11-10 09:08:00,56.7,42.1,30.26,South,180,5.3,-999.0,58,-99.99,,,0.00,Acu-Link.com,2013-11-10 15:08:00,
2013-11-10 09:23:00,57.2,41.2,30.26,East,90,7.8,-999.0,55,-99.99,,,0.00,Acu-Link.com,2013-11-10 15:23:00,
2013-11-10 09:38:00,57.4,40.9,30.26,East,90,6.8,-999.0,54,-99.99,,,0.00,Acu-Link.com,2013-11-10 15:38:00,
2013-11-10 09:54:00,59.0,41.9,30.26,East,90,2.7,-999.0,53,-99.99,,,0.00,Acu-Link.com,2013-11-10 15:54:00,
2013-11-10 10:09:00,59.2,40.6,30.26,SSE,157,6.3,-999.0,50,-99.99,,,0.00,Acu-Link.com,2013-11-10 16:09:00,
2013-11-10 10:24:00,60.6,40.8,30.26,ESE,112,7.3,-999.0,48,-99.99,,,0.00,Acu-Link.com,2013-11-10 16:24:00,
2013-11-10 10:39:00,61.0,41.7,30.26,East,90,2.7,-999.0,49,-99.99,,,0.00,Acu-Link.com,2013-11-10 16:39:00,
2013-11-10 10:55:00,62.1,40.5,30.25,East,90,3.7,-999.0,45,-99.99,,,0.00,Acu-Link.com,2013-11-10 16:55:00,
2013-11-10 11:10:00,62.4,41.3,30.25,ESE,112,4.2,-999.0,46,-99.99,,,0.00,Acu-Link.com,2013-11-10 17:10:00,
2013-11-10 11:25:00,63.3,42.2,30.25,ENE,67,3.2,-999.0,46,-99.99,,,0.00,Acu-Link.com,2013-11-10 17:25:00,
2013-11-10 11:40:00,63.7,42.5,30.24,ESE,112,4.7,-999.0,46,-99.99,,,0.00,Acu-Link.com,2013-11-10 17:40:00,
2013-11-10 11:55:00,63.9,41.6,30.23,ESE,112,3.7,-999.0,44,-99.99,,,0.00,Acu-Link.com,2013-11-10 17:55:00,
2013-11-10 12:10:00,63.5,40.0,30.23,ESE,112,7.8,-999.0,42,-99.99,,,0.00,Acu-Link.com,2013-11-10 18:10:00,
2013-11-10 12:25:00,65.3,41.0,30.22,SE,135,2.2,-999.0,41,-99.99,,,0.00,Acu-Link.com,2013-11-10 18:25:00,
2013-11-10 12:40:00,64.8,40.5,30.21,ESE,112,5.3,-999.0,41,-99.99,,,0.00,Acu-Link.com,2013-11-10 18:40:00,
2013-11-10 12:56:00,65.5,41.8,30.21,ESE,112,3.7,-999.0,42,-99.99,,,0.00,Acu-Link.com,2013-11-10 18:56:00,
2013-11-10 13:11:00,64.8,39.9,30.20,SSE,157,5.3,-999.0,40,-99.99,,,0.00,Acu-Link.com,2013-11-10 19:11:00,
2013-11-10 13:26:00,66.2,41.2,30.20,SW,225,1.1,-999.0,40,-99.99,,,0.00,Acu-Link.com,2013-11-10 19:26:00,
2013-11-10 13:42:00,65.8,40.8,30.20,SSW,202,2.2,-999.0,40,-99.99,,,0.00,Acu-Link.com,2013-11-10 19:42:00,
2013-11-10 13:57:00,65.1,41.4,30.19,ESE,112,4.2,-999.0,42,-99.99,,,0.00,Acu-Link.com,2013-11-10 19:57:00,
2013-11-10 14:12:00,64.9,41.9,30.18,East,90,2.2,-999.0,43,-99.99,,,0.00,Acu-Link.com,2013-11-10 20:12:00,
2013-11-10 14:28:00,66.4,41.3,30.18,ESE,112,2.2,-999.0,40,-99.99,,,0.00,Acu-Link.com,2013-11-10 20:28:00,
2013-11-10 14:43:00,65.7,42.0,30.17,ESE,112,2.7,-999.0,42,-99.99,,,0.00,Acu-Link.com,2013-11-10 20:43:00,
2013-11-10 14:58:00,65.8,41.4,30.17,NNE,22,2.2,-999.0,41,-99.99,,,0.00,Acu-Link.com,2013-11-10 20:58:00,
2013-11-10 15:28:00,65.3,42.2,30.17,ESE,112,0.0,-999.0,43,-99.99,,,0.00,Acu-Link.com,2013-11-10 21:28:00,
2013-11-10 15:44:00,64.6,41.0,30.17,SE,135,1.7,-999.0,42,-99.99,,,0.00,Acu-Link.com,2013-11-10 21:44:00,
2013-11-10 15:59:00,63.9,42.7,30.17,SSE,157,2.7,-999.0,46,-99.99,,,0.00,Acu-Link.com,2013-11-10 21:59:00,
2013-11-10 16:14:00,63.1,42.0,30.17,SE,135,0.0,-999.0,46,-99.99,,,0.00,Acu-Link.com,2013-11-10 22:14:00,
2013-11-10 16:29:00,61.9,42.0,30.16,SE,135,2.2,-999.0,48,-99.99,,,0.00,Acu-Link.com,2013-11-10 22:29:00,
2013-11-10 16:45:00,60.8,42.0,30.17,ENE,67,0.0,-999.0,50,-99.99,,,0.00,Acu-Link.com,2013-11-10 22:45:00,
2013-11-10 17:00:00,59.7,41.5,30.16,ESE,112,1.1,-999.0,51,-99.99,,,0.00,Acu-Link.com,2013-11-10 23:00:00,
2013-11-10 17:15:00,58.6,41.5,30.17,ESE,112,0.0,-999.0,53,-99.99,,,0.00,Acu-Link.com,2013-11-10 23:15:00,
2013-11-10 17:31:00,57.2,41.2,30.16,ESE,112,0.0,-999.0,55,-99.99,,,0.00,Acu-Link.com,2013-11-10 23:31:00,
2013-11-10 17:46:00,55.8,41.2,30.16,ESE,112,0.0,-999.0,58,-99.99,,,0.00,Acu-Link.com,2013-11-10 23:46:00,
2013-11-10 18:01:00,54.9,40.8,30.17,ESE,112,0.0,-999.0,59,-99.99,,,0.00,Acu-Link.com,2013-11-11 00:01:00,
2013-11-10 18:16:00,54.0,40.9,30.17,ESE,112,0.0,-999.0,61,-99.99,,,0.00,Acu-Link.com,2013-11-11 00:16:00,
2013-11-10 18:32:00,53.4,40.7,30.17,ESE,112,1.1,-999.0,62,-99.99,,,0.00,Acu-Link.com,2013-11-11 00:32:00,
2013-11-10 18:47:00,52.7,40.9,30.17,ESE,112,0.0,-999.0,64,-99.99,,,0.00,Acu-Link.com,2013-11-11 00:47:00,
2013-11-10 19:02:00,52.5,40.7,30.17,ESE,112,0.0,-999.0,64,-99.99,,,0.00,Acu-Link.com,2013-11-11 01:02:00,
2013-11-10 19:17:00,52.5,40.3,30.16,ESE,112,1.7,-999.0,63,-99.99,,,0.00,Acu-Link.com,2013-11-11 01:17:00,
2013-11-10 19:33:00,51.8,40.0,30.17,SSE,157,1.7,-999.0,64,-99.99,,,0.00,Acu-Link.com,2013-11-11 01:33:00,
2013-11-10 19:48:00,50.7,40.5,30.17,SSE,157,1.1,-999.0,68,-99.99,,,0.00,Acu-Link.com,2013-11-11 01:48:00,
2013-11-10 20:03:00,50.2,40.4,30.17,SSE,157,0.0,-999.0,69,-99.99,,,0.00,Acu-Link.com,2013-11-11 02:03:00,
2013-11-10 20:18:00,49.6,40.6,30.17,NNW,337,0.0,-999.0,71,-99.99,,,0.00,Acu-Link.com,2013-11-11 02:18:00,
2013-11-10 20:34:00,47.8,40.6,30.17,South,180,0.0,-999.0,76,-99.99,,,0.00,Acu-Link.com,2013-11-11 02:34:00,
2013-11-10 20:49:00,47.1,40.6,30.17,ESE,112,0.0,-999.0,78,-99.99,,,0.00,Acu-Link.com,2013-11-11 02:49:00,
2013-11-10 21:04:00,46.6,41.1,30.17,ESE,112,1.7,-999.0,81,-99.99,,,0.00,Acu-Link.com,2013-11-11 03:04:00,
2013-11-10 21:20:00,46.2,40.7,30.17,SE,135,0.0,-999.0,81,-99.99,,,0.00,Acu-Link.com,2013-11-11 03:20:00,
2013-11-10 21:35:00,45.7,40.5,30.17,SE,135,0.0,-999.0,82,-99.99,,,0.00,Acu-Link.com,2013-11-11 03:35:00,
2013-11-10 21:50:00,45.1,40.6,30.17,ESE,112,0.0,-999.0,84,-99.99,,,0.00,Acu-Link.com,2013-11-11 03:50:00,
2013-11-10 22:06:00,45.0,40.8,30.16,SSE,157,0.0,-999.0,85,-99.99,,,0.00,Acu-Link.com,2013-11-11 04:06:00,
2013-11-10 22:21:00,44.8,40.6,30.16,SE,135,0.0,-999.0,85,-99.99,,,0.00,Acu-Link.com,2013-11-11 04:21:00,
2013-11-10 22:36:00,43.9,40.0,30.16,ESE,112,0.0,-999.0,86,-99.99,,,0.00,Acu-Link.com,2013-11-11 04:36:00,
2013-11-10 22:52:00,43.7,40.4,30.17,SE,135,0.0,-999.0,88,-99.99,,,0.00,Acu-Link.com,2013-11-11 04:52:00,
2013-11-10 23:07:00,43.2,39.9,30.16,SSE,157,0.0,-999.0,88,-99.99,,,0.00,Acu-Link.com,2013-11-11 05:07:00,
2013-11-10 23:22:00,42.8,39.8,30.16,SE,135,0.0,-999.0,89,-99.99,,,0.00,Acu-Link.com,2013-11-11 05:22:00,
2013-11-10 23:38:00,42.6,39.6,30.15,SSE,157,1.7,-999.0,89,-99.99,,,0.00,Acu-Link.com,2013-11-11 05:38:00,
2013-11-10 23:53:00,42.6,40.2,30.15,SE,135,1.7,-999.0,91,-99.99,,,0.00,Acu-Link.com,2013-11-11 05:53:00,